createdAt,value
2023-03-30T00:01:11.425Z,100573.91
2023-03-30T00:03:40.372Z,100577.25
2023-03-30T00:06:09.097Z,100568.56
2023-03-30T00:08:37.818Z,100556.53
2023-03-30T00:11:15.607Z,100557.59
2023-03-30T00:13:46.498Z,100554.91
2023-03-30T00:16:15.548Z,100562.56
2023-03-30T00:18:45.060Z,100556.13
2023-03-30T00:21:13.199Z,100561.72
2023-03-30T00:23:41.149Z,100564.22
2023-03-30T00:26:13.193Z,100561.31
2023-03-30T00:28:40.977Z,100560.53
2023-03-30T00:31:10.697Z,100559.06
2023-03-30T00:33:45.811Z,100558.03
2023-03-30T00:36:19.237Z,100552.66
2023-03-30T00:38:48.507Z,100549.13
2023-03-30T00:41:18.893Z,100548.09
2023-03-30T00:44:04.990Z,100542.50
2023-03-30T00:46:33.527Z,100537.31
2023-03-30T00:49:12.250Z,100538.56
2023-03-30T00:51:43.919Z,100526.34
2023-03-30T00:54:17.622Z,100533.59
2023-03-30T00:56:46.206Z,100527.59
2023-03-30T00:59:14.468Z,100526.94
2023-03-30T01:01:42.780Z,100527.16
2023-03-30T01:04:11.209Z,100527.97
2023-03-30T01:06:43.701Z,100530.03
2023-03-30T01:09:15.486Z,100522.97
2023-03-30T01:11:46.725Z,100515.72
2023-03-30T01:14:17.339Z,100510.12
2023-03-30T01:17:02.824Z,100507.66
2023-03-30T01:19:48.827Z,100502.69
2023-03-30T01:22:21.820Z,100492.13
2023-03-30T01:25:11.423Z,100500.19
2023-03-30T01:27:46.137Z,100496.03
2023-03-30T01:30:30.545Z,100492.53
2023-03-30T01:33:29.388Z,100471.59
2023-03-30T01:36:03.505Z,100478.63
2023-03-30T01:38:54.382Z,100472.59
2023-03-30T01:41:43.604Z,100472.75
2023-03-30T01:44:31.801Z,100479.38
2023-03-30T01:47:10.907Z,100479.75
2023-03-30T01:49:50.836Z,100477.41
2023-03-30T01:52:31.904Z,100484.59
2023-03-30T01:55:08.798Z,100480.53
2023-03-30T01:57:59.433Z,100471.97
2023-03-30T02:00:31.075Z,100482.38
2023-03-30T02:03:05.776Z,100477.69
2023-03-30T02:05:35.051Z,100480.06
2023-03-30T02:08:14.021Z,100478.97
2023-03-30T02:10:44.573Z,100475.84
2023-03-30T02:13:14.174Z,100473.97
2023-03-30T02:15:49.727Z,100473.72
2023-03-30T02:18:18.547Z,100473.81
2023-03-30T02:20:46.652Z,100467.13
2023-03-30T02:23:15.224Z,100459.22
2023-03-30T02:25:43.633Z,100458.53
2023-03-30T02:28:11.699Z,100458.94
2023-03-30T02:30:46.669Z,100454.97
2023-03-30T02:33:30.798Z,100448.72
2023-03-30T02:36:42.916Z,100463.16
2023-03-30T02:39:40.340Z,100460.47
2023-03-30T02:42:17.560Z,100454.53
2023-03-30T02:45:20.071Z,100459.94
2023-03-30T02:47:58.336Z,100445.91
2023-03-30T02:50:47.529Z,100472.28
2023-03-30T02:53:33.821Z,100470.06
2023-03-30T02:56:11.514Z,100452.88
2023-03-30T02:59:04.122Z,100454.19
2023-03-30T03:02:12.258Z,100460.06
2023-03-30T03:04:46.315Z,100451.63
2023-03-30T03:07:15.424Z,100455.19
2023-03-30T03:09:43.353Z,100463.97
2023-03-30T03:12:12.157Z,100462.81
2023-03-30T03:14:40.716Z,100466.12
2023-03-30T03:17:11.060Z,100464.94
2023-03-30T03:19:39.881Z,100450.34
2023-03-30T03:22:07.591Z,100460.91
2023-03-30T03:24:39.260Z,100465.69
2023-03-30T03:27:12.760Z,100459.91
2023-03-30T03:29:40.391Z,100461.78
2023-03-30T03:32:08.195Z,100470.69
2023-03-30T03:34:35.810Z,100473.84
2023-03-30T03:37:03.564Z,100469.91
2023-03-30T03:39:33.676Z,100466.81
2023-03-30T03:42:03.732Z,100466.44
2023-03-30T03:44:34.270Z,100471.41
2023-03-30T03:47:06.655Z,100471.00
2023-03-30T03:49:34.413Z,100462.91
2023-03-30T03:52:02.569Z,100468.47
2023-03-30T03:54:30.244Z,100465.31
2023-03-30T03:56:57.984Z,100474.34
2023-03-30T03:59:25.649Z,100463.31
2023-03-30T04:01:53.346Z,100457.66
2023-03-30T04:04:21.176Z,100446.06
2023-03-30T04:06:48.998Z,100447.81
2023-03-30T04:09:19.189Z,100450.03
2023-03-30T04:11:46.850Z,100441.28
2023-03-30T04:14:15.607Z,100433.63
2023-03-30T04:16:43.847Z,100436.50
2023-03-30T04:19:12.778Z,100437.72
2023-03-30T04:21:46.882Z,100427.03
2023-03-30T04:24:18.110Z,100433.87
2023-03-30T04:26:48.806Z,100431.25
2023-03-30T04:29:17.937Z,100433.50
2023-03-30T04:31:47.133Z,100435.91
2023-03-30T04:34:15.058Z,100439.88
2023-03-30T04:36:44.354Z,100436.66
2023-03-30T04:39:12.238Z,100442.50
2023-03-30T04:41:42.830Z,100433.91
2023-03-30T04:44:11.378Z,100437.84
2023-03-30T04:46:43.713Z,100425.53
2023-03-30T04:49:11.348Z,100423.72
2023-03-30T04:51:40.654Z,100425.41
2023-03-30T04:54:11.200Z,100427.13
2023-03-30T04:56:41.224Z,100417.44
2023-03-30T04:59:08.887Z,100418.91
2023-03-30T05:01:36.596Z,100411.88
2023-03-30T05:04:04.300Z,100421.44
2023-03-30T05:06:33.436Z,100417.94
2023-03-30T05:09:03.920Z,100415.47
2023-03-30T05:11:31.603Z,100414.47
2023-03-30T05:13:59.235Z,100426.69
2023-03-30T05:16:27.454Z,100415.97
2023-03-30T05:18:55.429Z,100419.69
2023-03-30T05:21:25.587Z,100416.37
2023-03-30T05:23:53.239Z,100433.34
2023-03-30T05:26:23.007Z,100420.91
2023-03-30T05:28:51.630Z,100426.69
2023-03-30T05:31:23.406Z,100431.47
2023-03-30T05:36:20.813Z,100430.19
2023-03-30T05:38:49.868Z,100421.06
2023-03-30T05:41:17.848Z,100411.72
2023-03-30T05:43:45.695Z,100412.16
2023-03-30T05:46:13.547Z,100408.62
2023-03-30T05:48:41.248Z,100402.22
2023-03-30T05:51:12.853Z,100404.69
2023-03-30T05:53:40.796Z,100408.19
2023-03-30T05:56:10.442Z,100403.19
2023-03-30T05:58:38.512Z,100406.66
2023-03-30T06:01:06.514Z,100414.91
2023-03-30T06:03:35.598Z,100420.66
2023-03-30T06:06:05.204Z,100431.22
2023-03-30T06:08:33.757Z,100421.03
2023-03-30T06:11:02.168Z,100415.50
2023-03-30T06:13:30.212Z,100409.31
2023-03-30T06:16:02.896Z,100398.00
2023-03-30T06:18:31.473Z,100392.16
2023-03-30T06:21:03.196Z,100393.13
2023-03-30T06:23:31.038Z,100398.47
2023-03-30T06:25:59.688Z,100397.72
2023-03-30T06:28:27.374Z,100395.72
2023-03-30T06:30:55.160Z,100393.22
2023-03-30T06:33:23.243Z,100385.38
2023-03-30T06:35:52.927Z,100389.56
2023-03-30T06:38:22.690Z,100390.94
2023-03-30T06:40:51.404Z,100391.12
2023-03-30T06:43:24.784Z,100376.00
2023-03-30T06:45:53.318Z,100381.16
2023-03-30T06:48:23.906Z,100372.59
2023-03-30T06:50:56.007Z,100371.09
2023-03-30T06:53:24.804Z,100373.81
2023-03-30T06:55:55.062Z,100380.47
2023-03-30T06:58:27.375Z,100389.44
2023-03-30T07:00:55.768Z,100390.00
2023-03-30T07:03:26.606Z,100380.81
2023-03-30T07:05:54.215Z,100385.75
2023-03-30T07:08:21.877Z,100388.41
2023-03-30T07:10:49.761Z,100386.75
2023-03-30T07:13:18.035Z,100381.56
2023-03-30T07:15:47.269Z,100382.63
2023-03-30T07:18:17.657Z,100380.16
2023-03-30T07:20:46.842Z,100377.44
2023-03-30T07:23:17.739Z,100388.12
2023-03-30T07:25:48.191Z,100381.47
2023-03-30T07:28:16.363Z,100376.91
2023-03-30T07:30:44.433Z,100376.03
2023-03-30T07:33:15.149Z,100379.28
2023-03-30T07:35:47.018Z,100381.28
2023-03-30T07:38:17.460Z,100392.94
2023-03-30T07:40:45.112Z,100381.53
2023-03-30T07:43:12.716Z,100369.13
2023-03-30T07:45:42.838Z,100380.28
2023-03-30T07:48:11.105Z,100375.75
2023-03-30T07:50:38.716Z,100387.47
2023-03-30T07:53:07.167Z,100390.44
2023-03-30T07:55:35.266Z,100395.75
2023-03-30T07:58:02.903Z,100395.66
2023-03-30T08:00:31.007Z,100395.66
2023-03-30T08:02:58.831Z,100392.13
2023-03-30T08:05:30.113Z,100392.34
2023-03-30T08:07:57.869Z,100380.94
2023-03-30T08:10:25.505Z,100378.09
2023-03-30T08:12:53.174Z,100375.09
2023-03-30T08:15:20.938Z,100386.16
2023-03-30T08:17:48.682Z,100378.69
2023-03-30T08:20:20.698Z,100378.12
2023-03-30T08:22:48.991Z,100372.13
2023-03-30T08:25:18.571Z,100369.41
2023-03-30T08:27:46.446Z,100374.22
2023-03-30T08:30:16.510Z,100380.41
2023-03-30T08:32:44.214Z,100372.47
2023-03-30T08:35:14.979Z,100368.53
2023-03-30T08:37:43.650Z,100363.09
2023-03-30T08:40:18.561Z,100373.34
2023-03-30T08:42:49.955Z,100370.88
2023-03-30T08:45:18.788Z,100366.63
2023-03-30T08:47:51.294Z,100378.28
2023-03-30T08:50:31.226Z,100367.47
2023-03-30T08:52:59.473Z,100370.09
2023-03-30T08:55:44.240Z,100378.81
2023-03-30T08:58:27.120Z,100361.12
2023-03-30T09:01:13.483Z,100363.47
2023-03-30T09:03:47.396Z,100352.81
2023-03-30T09:06:34.713Z,100359.31
2023-03-30T09:09:02.285Z,100365.34
2023-03-30T09:11:37.469Z,100365.72
2023-03-30T09:14:11.507Z,100342.37
2023-03-30T09:16:57.729Z,100340.50
2023-03-30T09:19:33.875Z,100342.03
2023-03-30T09:22:03.705Z,100335.47
2023-03-30T09:24:33.693Z,100332.16
2023-03-30T09:27:09.471Z,100345.28
2023-03-30T09:29:51.536Z,100344.50
2023-03-30T09:32:44.698Z,100337.47
2023-03-30T09:35:27.600Z,100327.50
2023-03-30T09:37:55.211Z,100331.00
2023-03-30T09:40:58.328Z,100314.75
2023-03-30T09:43:35.471Z,100314.06
2023-03-30T09:46:09.499Z,100308.81
2023-03-30T09:48:41.846Z,100295.78
2023-03-30T09:51:16.917Z,100299.09
2023-03-30T09:53:46.749Z,100300.00
2023-03-30T09:56:31.287Z,100292.41
2023-03-30T09:58:58.880Z,100296.00
2023-03-30T10:01:38.592Z,100294.47
2023-03-30T10:04:09.766Z,100294.53
2023-03-30T10:06:40.789Z,100291.03
2023-03-30T10:09:14.535Z,100282.88
2023-03-30T10:11:52.401Z,100281.47
2023-03-30T10:14:35.629Z,100274.81
2023-03-30T10:17:05.697Z,100280.59
2023-03-30T10:19:39.566Z,100280.28
2023-03-30T10:22:21.071Z,100288.44
2023-03-30T10:24:58.298Z,100276.56
2023-03-30T10:27:34.886Z,100269.88
2023-03-30T10:30:14.772Z,100265.09
2023-03-30T10:32:46.826Z,100266.19
2023-03-30T10:35:21.259Z,100251.03
2023-03-30T10:37:51.218Z,100238.72
2023-03-30T10:40:21.159Z,100244.25
2023-03-30T10:42:52.983Z,100237.16
2023-03-30T10:45:23.142Z,100232.72
2023-03-30T10:48:26.869Z,100225.75
2023-03-30T10:51:02.771Z,100238.03
2023-03-30T10:53:36.678Z,100236.84
2023-03-30T10:56:11.874Z,100230.03
2023-03-30T10:58:58.501Z,100225.25
2023-03-30T11:01:32.401Z,100219.59
2023-03-30T11:04:20.567Z,100209.34
2023-03-30T11:06:54.248Z,100209.56
2023-03-30T11:09:28.550Z,100214.25
2023-03-30T11:12:26.784Z,100218.03
2023-03-30T11:15:02.882Z,100215.34
2023-03-30T11:17:35.336Z,100213.03
2023-03-30T11:20:27.279Z,100215.69
2023-03-30T11:23:04.744Z,100215.41
2023-03-30T11:25:42.852Z,100211.66
2023-03-30T11:28:14.970Z,100206.03
2023-03-30T11:30:45.577Z,100206.84
2023-03-30T11:33:33.850Z,100202.03
2023-03-30T11:36:19.686Z,100201.09
2023-03-30T11:38:58.815Z,100195.09
2023-03-30T11:41:36.240Z,100180.13
2023-03-30T11:44:04.015Z,100187.72
2023-03-30T11:46:49.191Z,100177.62
2023-03-30T11:49:23.290Z,100178.94
2023-03-30T11:52:19.963Z,100163.97
2023-03-30T11:55:03.118Z,100163.16
2023-03-30T11:57:45.874Z,100170.25
2023-03-30T12:00:44.754Z,100161.22
2023-03-30T12:03:31.252Z,100134.03
2023-03-30T12:06:29.396Z,100144.16
2023-03-30T12:09:35.886Z,100140.31
2023-03-30T12:12:04.223Z,100135.97
2023-03-30T12:14:41.649Z,100134.03
2023-03-30T12:17:27.674Z,100129.34
2023-03-30T12:20:31.075Z,100114.28
2023-03-30T12:23:17.016Z,100105.91
2023-03-30T12:26:03.239Z,100111.16
2023-03-30T12:32:07.015Z,100090.69
2023-03-30T12:34:41.576Z,100088.13
2023-03-30T12:37:34.781Z,100091.47
2023-03-30T12:40:10.626Z,100084.47
2023-03-30T12:42:46.942Z,100083.25
2023-03-30T12:45:23.235Z,100075.09
2023-03-30T12:48:15.995Z,100069.38
2023-03-30T12:51:04.279Z,100065.53
2023-03-30T12:53:48.636Z,100054.13
2023-03-30T12:56:34.727Z,100055.19
2023-03-30T12:59:20.355Z,100050.75
2023-03-30T13:02:25.858Z,100049.78
2023-03-30T13:04:53.991Z,100043.22
2023-03-30T13:07:25.252Z,100045.62
2023-03-30T13:10:04.198Z,100035.06
2023-03-30T13:12:39.033Z,100043.84
2023-03-30T13:15:33.423Z,100036.28
2023-03-30T13:18:02.436Z,100034.34
2023-03-30T13:20:35.329Z,100027.53
2023-03-30T13:23:12.450Z,100026.66
2023-03-30T13:25:40.171Z,100020.16
2023-03-30T13:28:32.916Z,100034.94
2023-03-30T13:31:16.701Z,100022.94
2023-03-30T13:33:51.034Z,100025.97
2023-03-30T13:36:27.118Z,100018.03
2023-03-30T13:39:13.638Z,100023.19
2023-03-30T13:42:16.908Z,100019.97
2023-03-30T13:44:54.896Z,100026.31
2023-03-30T13:47:32.625Z,100009.34
2023-03-30T13:50:04.286Z,100010.44
2023-03-30T13:52:38.958Z,100008.22
2023-03-30T13:55:16.026Z,100002.75
2023-03-30T13:57:46.686Z,99998.91
2023-03-30T14:00:40.076Z,99990.94
2023-03-30T14:03:29.774Z,99986.84
2023-03-30T14:06:13.521Z,99974.59
2023-03-30T14:08:45.081Z,99972.66
2023-03-30T14:11:21.060Z,99969.69
2023-03-30T14:13:52.234Z,99959.88
2023-03-30T14:16:26.778Z,99955.00
2023-03-30T14:19:09.645Z,99958.56
2023-03-30T14:21:38.984Z,99955.53
2023-03-30T14:24:07.018Z,99948.72
2023-03-30T14:26:34.636Z,99951.97
2023-03-30T14:29:13.207Z,99935.06
2023-03-30T14:31:53.709Z,99935.06
2023-03-30T14:34:31.962Z,99928.25
2023-03-30T14:37:08.723Z,99920.09
2023-03-30T14:39:57.278Z,99910.53
2023-03-30T14:42:34.758Z,99902.63
2023-03-30T14:45:05.126Z,99891.12
2023-03-30T14:47:33.297Z,99882.13
2023-03-30T14:50:06.492Z,99884.88
2023-03-30T14:52:40.785Z,99884.34
2023-03-30T14:55:18.257Z,99876.44
2023-03-30T14:57:48.801Z,99870.66
2023-03-30T15:00:21.088Z,99863.56
2023-03-30T15:03:02.587Z,99854.28
2023-03-30T15:05:41.576Z,99859.97
2023-03-30T15:08:22.215Z,99854.28
2023-03-30T15:10:58.203Z,99852.34
2023-03-30T15:13:39.171Z,99844.69
2023-03-30T15:16:08.088Z,99836.25
2023-03-30T15:18:40.278Z,99842.81
2023-03-30T15:21:11.135Z,99835.72
2023-03-30T15:23:42.528Z,99822.09
2023-03-30T15:26:12.424Z,99821.31
2023-03-30T15:28:52.059Z,99824.88
2023-03-30T15:31:22.098Z,99828.72
2023-03-30T15:33:55.886Z,99827.63
2023-03-30T15:36:28.899Z,99840.16
2023-03-30T15:38:59.074Z,99853.81
2023-03-30T15:41:50.839Z,99854.91
2023-03-30T15:44:20.709Z,99862.00
2023-03-30T15:46:55.433Z,99869.66
2023-03-30T15:49:29.307Z,99872.41
2023-03-30T15:52:01.964Z,99879.78
2023-03-30T15:54:43.711Z,99886.91
2023-03-30T15:57:13.197Z,99886.97
2023-03-30T15:59:50.464Z,99876.88
2023-03-30T16:02:23.809Z,99876.88
2023-03-30T16:04:54.471Z,99867.34
2023-03-30T16:07:24.623Z,99860.56
2023-03-30T16:09:53.049Z,99859.47
2023-03-30T16:12:25.303Z,99859.50
2023-03-30T16:14:53.482Z,99851.53
2023-03-30T16:17:22.231Z,99863.25
2023-03-30T16:19:49.933Z,99858.88
2023-03-30T16:22:20.013Z,99846.88
2023-03-30T16:24:48.354Z,99851.19
2023-03-30T16:27:16.104Z,99846.78
2023-03-30T16:29:43.860Z,99832.84
2023-03-30T16:32:11.701Z,99826.56
2023-03-30T16:34:41.667Z,99811.31
2023-03-30T16:37:13.994Z,99817.75
2023-03-30T16:39:42.630Z,99825.37
2023-03-30T16:42:12.831Z,99824.25
2023-03-30T16:44:40.690Z,99831.03
2023-03-30T16:47:10.775Z,99840.00
2023-03-30T16:49:38.939Z,99835.03
2023-03-30T16:52:08.887Z,99834.16
2023-03-30T16:54:37.951Z,99843.94
2023-03-30T16:57:06.652Z,99843.09
2023-03-30T16:59:36.301Z,99836.56
2023-03-30T17:02:03.963Z,99849.06
2023-03-30T17:04:31.762Z,99842.19
2023-03-30T17:06:59.422Z,99845.12
2023-03-30T17:09:27.173Z,99831.53
2023-03-30T17:11:54.920Z,99831.75
2023-03-30T17:14:23.384Z,99833.06
2023-03-30T17:16:51.180Z,99822.72
2023-03-30T17:19:18.906Z,99820.50
2023-03-30T17:21:46.633Z,99818.06
2023-03-30T17:24:16.552Z,99825.41
2023-03-30T17:26:47.464Z,99821.03
2023-03-30T17:29:15.100Z,99825.94
2023-03-30T17:31:46.397Z,99834.06
2023-03-30T17:34:14.790Z,99824.56
2023-03-30T17:36:42.567Z,99812.00
2023-03-30T17:39:15.966Z,99807.94
2023-03-30T17:41:43.986Z,99804.13
2023-03-30T17:44:11.701Z,99800.00
2023-03-30T17:46:44.142Z,99802.97
2023-03-30T17:49:17.807Z,99793.72
2023-03-30T17:51:45.575Z,99792.88
2023-03-30T17:54:13.286Z,99790.94
2023-03-30T17:56:41.179Z,99807.47
2023-03-30T17:59:22.511Z,99803.66
2023-03-30T18:01:50.588Z,99805.47
2023-03-30T18:04:18.284Z,99802.19
2023-03-30T18:06:48.776Z,99800.56
2023-03-30T18:09:17.222Z,99794.06
2023-03-30T18:11:45.981Z,99791.88
2023-03-30T18:14:16.280Z,99810.31
2023-03-30T18:16:44.793Z,99794.03
2023-03-30T18:19:15.721Z,99804.88
2023-03-30T18:21:43.453Z,99809.75
2023-03-30T18:24:12.180Z,99810.25
2023-03-30T18:26:42.996Z,99821.69
2023-03-30T18:29:20.361Z,99826.75
2023-03-30T18:32:13.805Z,99860.25
2023-03-30T18:34:42.627Z,99865.94
2023-03-30T18:37:14.126Z,99867.56
2023-03-30T18:39:47.942Z,99870.03
2023-03-30T18:42:15.754Z,99866.22
2023-03-30T18:44:44.923Z,99866.22
2023-03-30T18:47:12.612Z,99861.06
2023-03-30T18:49:40.528Z,99858.09
2023-03-30T18:52:08.389Z,99857.00
2023-03-30T18:54:40.542Z,99854.56
2023-03-30T18:57:10.545Z,99852.41
2023-03-30T18:59:40.923Z,99844.47
2023-03-30T19:02:11.332Z,99840.13
2023-03-30T19:04:40.053Z,99833.56
2023-03-30T19:07:07.732Z,99831.31
2023-03-30T19:09:43.079Z,99829.66
2023-03-30T19:12:14.225Z,99808.16
2023-03-30T19:14:41.919Z,99780.41
2023-03-30T19:17:12.151Z,99769.88
2023-03-30T19:19:39.824Z,99774.53
2023-03-30T19:22:07.722Z,99791.31
2023-03-30T19:24:35.912Z,99790.81
2023-03-30T19:27:10.396Z,99786.72
2023-03-30T19:29:38.041Z,99793.47
2023-03-30T19:32:06.205Z,99780.69
2023-03-30T19:34:33.885Z,99781.94
2023-03-30T19:37:03.889Z,99783.56
2023-03-30T19:39:31.550Z,99781.09
2023-03-30T19:41:59.267Z,99770.69
2023-03-30T19:44:26.963Z,99774.94
2023-03-30T19:46:54.612Z,99777.59
2023-03-30T19:49:22.276Z,99786.25
2023-03-30T19:51:49.951Z,99787.22
2023-03-30T19:54:28.452Z,99786.66
2023-03-30T19:57:01.159Z,99788.00
2023-03-30T19:59:29.354Z,99780.63
2023-03-30T20:01:59.695Z,99781.94
2023-03-30T20:04:27.568Z,99784.41
2023-03-30T20:06:57.911Z,99777.28
2023-03-30T20:09:25.543Z,99774.06
2023-03-30T20:11:53.206Z,99772.44
2023-03-30T20:14:20.853Z,99775.97
2023-03-30T20:16:49.944Z,99777.28
2023-03-30T20:19:29.051Z,99777.28
2023-03-30T20:21:59.142Z,99768.91
2023-03-30T20:24:35.123Z,99775.16
2023-03-30T20:27:11.746Z,99772.19
2023-03-30T20:29:39.427Z,99774.56
2023-03-30T20:32:15.669Z,99760.47
2023-03-30T20:34:48.702Z,99759.13
2023-03-30T20:37:18.851Z,99756.94
2023-03-30T20:39:46.628Z,99759.13
2023-03-30T20:42:18.533Z,99759.97
2023-03-30T20:44:50.290Z,99761.09
2023-03-30T20:47:23.448Z,99757.81
2023-03-30T20:49:51.247Z,99756.72
2023-03-30T20:52:18.896Z,99752.19
2023-03-30T20:54:47.008Z,99756.78
2023-03-30T20:57:28.162Z,99748.09
2023-03-30T21:00:02.459Z,99750.56
2023-03-30T21:02:31.642Z,99749.47
2023-03-30T21:05:01.548Z,99745.38
2023-03-30T21:07:29.812Z,99705.59
2023-03-30T21:09:57.467Z,99750.81
2023-03-30T21:12:25.141Z,99740.72
2023-03-30T21:14:52.771Z,99720.38
2023-03-30T21:17:21.978Z,99726.87
2023-03-30T21:19:49.646Z,99708.47
2023-03-30T21:22:19.376Z,99700.84
2023-03-30T21:24:47.120Z,99712.75
2023-03-30T21:27:14.984Z,99717.09
2023-03-30T21:29:45.065Z,99710.34
2023-03-30T21:32:12.697Z,99699.50
2023-03-30T21:34:40.365Z,99695.97
2023-03-30T21:37:08.372Z,99691.94
2023-03-30T21:39:38.262Z,99680.28
2023-03-30T21:42:06.205Z,99684.56
2023-03-30T21:44:37.772Z,99692.72
2023-03-30T21:47:05.484Z,99714.94
2023-03-30T21:49:33.125Z,99722.00
2023-03-30T21:52:00.774Z,99725.28
2023-03-30T21:54:28.375Z,99723.38
2023-03-30T21:56:56.079Z,99725.59
2023-03-30T21:59:23.710Z,99722.12
2023-03-30T22:01:51.447Z,99722.72
2023-03-30T22:04:19.361Z,99724.44
2023-03-30T22:06:47.766Z,99714.69
2023-03-30T22:09:15.377Z,99723.97
2023-03-30T22:11:43.251Z,99730.53
2023-03-30T22:14:13.253Z,99731.38
2023-03-30T22:16:41.054Z,99736.00
2023-03-30T22:19:09.775Z,99735.75
2023-03-30T22:21:37.424Z,99735.47
2023-03-30T22:24:07.445Z,99733.59
2023-03-30T22:26:38.804Z,99742.31
2023-03-30T22:29:07.091Z,99740.41
2023-03-30T22:31:35.111Z,99737.72
2023-03-30T22:34:04.096Z,99739.91
2023-03-30T22:36:32.349Z,99730.94
2023-03-30T22:39:02.299Z,99724.69
2023-03-30T22:41:32.668Z,99717.38
2023-03-30T22:44:00.376Z,99725.84
2023-03-30T22:46:28.774Z,99717.97
2023-03-30T22:48:56.553Z,99723.97
2023-03-30T22:51:26.378Z,99720.91
2023-03-30T22:53:59.265Z,99727.41
2023-03-30T22:56:29.435Z,99720.34
2023-03-30T22:58:57.410Z,99721.44
2023-03-30T23:01:25.165Z,99712.22
2023-03-30T23:03:53.528Z,99705.41
2023-03-30T23:06:21.455Z,99702.94
2023-03-30T23:08:49.331Z,99706.72
2023-03-30T23:11:17.299Z,99713.78
2023-03-30T23:13:44.891Z,99712.97
2023-03-30T23:16:12.526Z,99719.22
2023-03-30T23:18:40.960Z,99718.66
2023-03-30T23:21:14.192Z,99721.34
2023-03-30T23:23:44.911Z,99718.66
2023-03-30T23:26:14.251Z,99707.78
2023-03-30T23:28:43.136Z,99710.22
2023-03-30T23:31:17.635Z,99712.09
2023-03-30T23:33:45.839Z,99709.91
2023-03-30T23:36:16.786Z,99710.97
2023-03-30T23:38:46.608Z,99720.72
2023-03-30T23:41:16.730Z,99716.88
2023-03-30T23:43:44.389Z,99705.47
2023-03-30T23:46:12.582Z,99701.63
2023-03-30T23:48:42.019Z,99708.69
2023-03-30T23:51:13.276Z,99711.41
2023-03-30T23:53:47.221Z,99708.69
2023-03-30T23:56:17.709Z,99713.28
2023-03-30T23:58:47.318Z,99706.53
